createdAt,value
2019-03-28T00:01:12.775Z,99.90
2019-03-28T00:03:38.860Z,99.90
2019-03-28T00:06:04.890Z,99.90
2019-03-28T00:08:30.915Z,99.90
2019-03-28T00:10:57.023Z,99.90
2019-03-28T00:13:23.031Z,99.90
2019-03-28T00:15:49.047Z,99.90
2019-03-28T00:18:15.072Z,99.90
2019-03-28T00:20:41.111Z,99.90
2019-03-28T00:23:11.747Z,99.90
2019-03-28T00:25:38.202Z,99.90
2019-03-28T00:28:04.436Z,99.90
2019-03-28T00:30:30.467Z,99.90
2019-03-28T00:32:56.483Z,99.90
2019-03-28T00:35:22.525Z,99.90
2019-03-28T00:37:48.560Z,99.90
2019-03-28T00:40:14.587Z,99.90
2019-03-28T00:42:43.686Z,99.90
2019-03-28T00:45:10.068Z,99.90
2019-03-28T00:47:36.244Z,99.90
2019-03-28T00:50:04.259Z,99.90
2019-03-28T00:52:30.305Z,99.90
2019-03-28T00:54:56.332Z,99.90
2019-03-28T00:57:22.383Z,99.90
2019-03-28T00:59:49.240Z,99.90
2019-03-28T01:02:15.379Z,99.90
2019-03-28T01:04:41.388Z,99.90
2019-03-28T01:07:07.431Z,99.90
2019-03-28T01:09:33.451Z,99.90
2019-03-28T01:11:59.736Z,99.90
2019-03-28T01:14:25.752Z,99.90
2019-03-28T01:16:51.787Z,99.90
2019-03-28T01:19:17.800Z,99.90
2019-03-28T01:21:43.835Z,99.90
2019-03-28T01:24:09.851Z,99.90
2019-03-28T01:26:35.903Z,99.90
2019-03-28T01:29:01.913Z,99.90
2019-03-28T01:31:27.997Z,99.90
2019-03-28T01:33:54.003Z,99.90
2019-03-28T01:36:20.021Z,99.90
2019-03-28T01:38:46.055Z,99.90
2019-03-28T01:41:12.101Z,99.90
2019-03-28T01:43:38.180Z,99.90
2019-03-28T01:46:04.216Z,99.90
2019-03-28T01:48:30.252Z,99.90
2019-03-28T01:50:56.270Z,99.90
2019-03-28T01:53:22.328Z,99.90
2019-03-28T01:55:48.343Z,99.90
2019-03-28T01:58:14.448Z,99.90
2019-03-28T02:00:40.575Z,99.90
2019-03-28T02:03:06.619Z,99.90
2019-03-28T02:05:32.627Z,99.90
2019-03-28T02:07:58.666Z,99.90
2019-03-28T02:10:24.671Z,99.90
2019-03-28T02:12:50.716Z,99.90
2019-03-28T02:15:16.738Z,99.90
2019-03-28T02:17:42.763Z,99.90
2019-03-28T02:20:09.205Z,99.90
2019-03-28T02:22:35.325Z,99.90
2019-03-28T02:25:01.336Z,99.90
2019-03-28T02:27:27.387Z,99.90
2019-03-28T02:29:53.402Z,99.90
2019-03-28T02:32:19.536Z,99.90
2019-03-28T02:34:48.850Z,99.90
2019-03-28T02:37:13.467Z,99.90
2019-03-28T02:39:39.503Z,99.90
2019-03-28T02:42:05.519Z,99.90
2019-03-28T02:44:31.566Z,99.90
2019-03-28T02:46:57.588Z,99.90
2019-03-28T02:49:23.620Z,99.90
2019-03-28T02:51:49.645Z,99.90
2019-03-28T02:54:15.670Z,99.90
2019-03-28T02:56:41.877Z,99.90
2019-03-28T02:59:08.215Z,99.90
2019-03-28T03:01:34.240Z,99.90
2019-03-28T03:04:00.275Z,99.90
2019-03-28T03:06:26.295Z,99.90
2019-03-28T03:08:52.346Z,99.90
2019-03-28T03:11:18.350Z,99.90
2019-03-28T03:13:45.789Z,99.90
2019-03-28T03:16:12.132Z,99.90
2019-03-28T03:18:38.164Z,99.90
2019-03-28T03:21:04.186Z,99.90
2019-03-28T03:23:30.203Z,99.90
2019-03-28T03:25:56.228Z,99.90
2019-03-28T03:28:22.276Z,99.90
2019-03-28T03:30:48.279Z,99.90
2019-03-28T03:33:14.324Z,99.90
2019-03-28T03:35:40.358Z,99.90
2019-03-28T03:38:06.459Z,99.90
2019-03-28T03:40:32.507Z,99.90
2019-03-28T03:42:58.506Z,99.90
2019-03-28T03:45:24.765Z,99.90
2019-03-28T03:47:50.814Z,99.90
2019-03-28T03:50:25.926Z,99.90
2019-03-28T03:52:51.941Z,99.90
2019-03-28T03:55:17.992Z,99.90
2019-03-28T03:57:44.028Z,99.90
2019-03-28T04:00:12.366Z,99.90
2019-03-28T04:02:38.397Z,99.90
2019-03-28T04:05:05.505Z,99.90
2019-03-28T04:07:31.602Z,99.90
2019-03-28T04:09:57.651Z,99.90
2019-03-28T04:12:23.669Z,99.90
2019-03-28T04:14:49.726Z,99.90
2019-03-28T04:17:15.739Z,99.90
2019-03-28T04:19:41.768Z,99.90
2019-03-28T04:22:07.785Z,99.90
2019-03-28T04:24:33.821Z,99.90
2019-03-28T04:26:59.840Z,99.90
2019-03-28T04:29:25.884Z,99.90
2019-03-28T04:31:57.925Z,99.90
2019-03-28T04:34:23.960Z,99.90
2019-03-28T04:36:49.975Z,99.90
2019-03-28T04:39:16.629Z,99.90
2019-03-28T04:41:42.953Z,99.90
2019-03-28T04:44:08.992Z,99.90
2019-03-28T04:46:35.000Z,99.90
2019-03-28T04:49:01.019Z,99.90
2019-03-28T04:51:27.486Z,99.90
2019-03-28T04:53:56.231Z,99.90
2019-03-28T04:56:21.711Z,99.90
2019-03-28T04:58:53.538Z,99.90
2019-03-28T05:01:19.584Z,99.90
2019-03-28T05:03:45.655Z,99.90
2019-03-28T05:06:11.875Z,99.90
2019-03-28T05:08:37.996Z,99.90
2019-03-28T05:11:04.036Z,99.90
2019-03-28T05:13:30.063Z,99.90
2019-03-28T05:15:56.141Z,99.90
2019-03-28T05:18:22.220Z,99.90
2019-03-28T05:20:48.246Z,99.90
2019-03-28T05:23:14.393Z,99.90
2019-03-28T05:25:40.595Z,99.90
2019-03-28T05:28:06.619Z,99.90
2019-03-28T05:30:32.667Z,99.90
2019-03-28T05:32:58.673Z,99.90
2019-03-28T05:35:24.820Z,99.90
2019-03-28T05:37:50.867Z,99.90
2019-03-28T05:40:16.919Z,99.90
2019-03-28T05:42:42.930Z,99.90
2019-03-28T05:45:09.567Z,99.90
2019-03-28T05:47:35.693Z,99.90
2019-03-28T05:50:01.921Z,99.90
2019-03-28T05:52:27.953Z,99.90
2019-03-28T05:54:54.117Z,99.90
2019-03-28T05:57:20.147Z,99.90
2019-03-28T05:59:46.288Z,99.90
2019-03-28T06:02:12.427Z,99.90
2019-03-28T06:04:38.444Z,99.90
2019-03-28T06:07:04.478Z,99.90
2019-03-28T06:09:30.504Z,99.90
2019-03-28T06:11:56.537Z,99.90
2019-03-28T06:14:22.560Z,99.90
2019-03-28T06:16:48.595Z,99.90
2019-03-28T06:19:14.639Z,99.90
2019-03-28T06:21:40.680Z,99.90
2019-03-28T06:24:06.704Z,99.90
2019-03-28T06:26:32.736Z,99.90
2019-03-28T06:28:58.755Z,99.90
2019-03-28T06:31:24.787Z,99.90
2019-03-28T06:33:50.811Z,99.90
2019-03-28T06:36:16.853Z,99.90
2019-03-28T06:38:42.943Z,99.90
2019-03-28T06:41:09.007Z,99.90
2019-03-28T06:43:35.027Z,99.90
2019-03-28T06:46:01.872Z,99.90
2019-03-28T06:48:27.909Z,99.90
2019-03-28T06:50:53.948Z,99.90
2019-03-28T06:53:19.974Z,99.90
2019-03-28T06:55:46.019Z,99.90
2019-03-28T06:58:12.039Z,99.90
2019-03-28T07:00:38.118Z,99.90
2019-03-28T07:03:04.126Z,99.90
2019-03-28T07:05:30.195Z,99.90
2019-03-28T07:07:56.229Z,99.90
2019-03-28T07:10:22.347Z,99.90
2019-03-28T07:12:48.427Z,99.90
2019-03-28T07:15:14.635Z,99.90
2019-03-28T07:17:40.695Z,99.90
2019-03-28T07:20:09.142Z,99.90
2019-03-28T07:22:35.127Z,99.90
2019-03-28T07:25:01.160Z,99.90
2019-03-28T07:27:27.199Z,99.90
2019-03-28T07:29:53.339Z,99.90
2019-03-28T07:32:19.364Z,99.90
2019-03-28T07:34:45.375Z,99.90
2019-03-28T07:37:11.417Z,99.90
2019-03-28T07:39:37.428Z,99.90
2019-03-28T07:42:03.459Z,99.90
2019-03-28T07:44:29.476Z,99.90
2019-03-28T07:46:55.545Z,99.90
2019-03-28T07:49:21.551Z,99.90
2019-03-28T07:51:47.598Z,99.90
2019-03-28T07:54:13.626Z,99.90
2019-03-28T07:56:39.656Z,99.90
2019-03-28T07:59:05.707Z,99.90
2019-03-28T08:01:31.744Z,99.90
2019-03-28T08:03:57.769Z,99.90
2019-03-28T08:06:23.804Z,99.90
2019-03-28T08:08:49.840Z,99.90
2019-03-28T08:11:15.899Z,99.90
2019-03-28T08:13:41.987Z,99.90
2019-03-28T08:16:08.015Z,99.90
2019-03-28T08:18:34.065Z,99.90
2019-03-28T08:21:00.071Z,99.90
2019-03-28T08:23:26.101Z,99.90
2019-03-28T08:25:52.199Z,99.90
2019-03-28T08:28:18.240Z,99.90
2019-03-28T08:30:45.460Z,99.90
2019-03-28T08:33:11.695Z,99.90
2019-03-28T08:35:37.722Z,99.90
2019-03-28T08:38:05.159Z,99.90
2019-03-28T08:40:39.680Z,99.90
2019-03-28T08:43:05.203Z,99.90
2019-03-28T08:45:31.418Z,99.90
2019-03-28T08:47:57.572Z,99.90
2019-03-28T08:50:23.598Z,99.90
2019-03-28T08:52:49.619Z,99.90
2019-03-28T08:55:15.665Z,99.90
2019-03-28T08:57:41.719Z,99.90
2019-03-28T09:00:10.051Z,99.90
2019-03-28T09:02:36.099Z,99.90
2019-03-28T09:05:03.500Z,99.90
2019-03-28T09:07:29.588Z,99.90
2019-03-28T09:09:55.603Z,99.90
2019-03-28T09:12:21.651Z,99.90
2019-03-28T09:14:47.695Z,99.90
2019-03-28T09:17:13.716Z,99.90
2019-03-28T09:19:40.428Z,99.90
2019-03-28T09:22:06.439Z,99.90
2019-03-28T09:24:32.476Z,99.90
2019-03-28T09:26:58.500Z,99.90
2019-03-28T09:29:24.534Z,99.90
2019-03-28T09:31:50.650Z,99.90
2019-03-28T09:34:16.686Z,99.90
2019-03-28T09:36:42.716Z,99.90
2019-03-28T09:39:08.834Z,99.90
2019-03-28T09:41:34.848Z,99.90
2019-03-28T09:44:01.921Z,99.90
2019-03-28T09:46:28.067Z,99.90
2019-03-28T09:48:54.124Z,99.00
2019-03-28T09:51:20.235Z,98.70
2019-03-28T09:53:46.271Z,99.80
2019-03-28T09:56:12.307Z,99.70
2019-03-28T09:58:38.335Z,98.80
2019-03-28T10:01:04.361Z,97.80
2019-03-28T10:03:30.450Z,99.00
2019-03-28T10:05:56.573Z,99.90
2019-03-28T10:08:22.620Z,98.80
2019-03-28T10:10:48.921Z,99.20
2019-03-28T10:13:14.984Z,97.40
2019-03-28T10:15:41.123Z,96.60
2019-03-28T10:18:07.166Z,95.30
2019-03-28T10:20:33.247Z,96.00
2019-03-28T10:22:59.276Z,95.80
2019-03-28T10:25:25.351Z,95.10
2019-03-28T10:27:51.367Z,95.20
2019-03-28T10:30:21.206Z,93.00
2019-03-28T10:32:47.231Z,93.30
2019-03-28T10:35:17.110Z,92.90
2019-03-28T10:37:43.128Z,92.70
2019-03-28T10:40:09.269Z,93.40
2019-03-28T10:42:35.293Z,92.90
2019-03-28T10:45:01.987Z,92.80
2019-03-28T10:47:27.991Z,92.60
2019-03-28T10:49:54.037Z,91.50
2019-03-28T10:52:20.044Z,90.70
2019-03-28T10:54:46.084Z,89.70
2019-03-28T10:57:13.795Z,90.40
2019-03-28T10:59:40.095Z,90.60
2019-03-28T11:02:06.229Z,88.50
2019-03-28T11:04:32.274Z,88.10
2019-03-28T11:06:58.592Z,91.00
2019-03-28T11:09:25.027Z,91.20
2019-03-28T11:11:51.040Z,91.00
2019-03-28T11:14:17.070Z,90.60
2019-03-28T11:16:43.091Z,87.20
2019-03-28T11:19:09.143Z,83.60
2019-03-28T11:21:35.182Z,88.40
2019-03-28T11:24:02.006Z,88.40
2019-03-28T11:26:28.083Z,88.30
2019-03-28T11:28:54.124Z,88.00
2019-03-28T11:31:20.235Z,88.30
2019-03-28T11:33:46.283Z,87.70
2019-03-28T11:36:12.384Z,83.30
2019-03-28T11:38:38.459Z,86.10
2019-03-28T11:41:04.480Z,82.30
2019-03-28T11:43:30.492Z,83.00
2019-03-28T11:45:56.531Z,82.80
2019-03-28T11:48:22.552Z,79.00
2019-03-28T11:50:48.586Z,74.30
2019-03-28T11:53:14.601Z,75.10
2019-03-28T11:55:40.628Z,77.00
2019-03-28T11:58:06.680Z,75.50
2019-03-28T12:00:32.728Z,78.10
2019-03-28T12:02:58.753Z,79.00
2019-03-28T12:05:24.775Z,81.60
2019-03-28T12:07:50.801Z,80.80
2019-03-28T12:10:16.935Z,79.40
2019-03-28T12:12:45.996Z,75.80
2019-03-28T12:15:12.535Z,73.00
2019-03-28T12:17:38.563Z,72.10
2019-03-28T12:20:08.097Z,73.30
2019-03-28T12:22:34.245Z,76.60
2019-03-28T12:25:01.156Z,77.20
2019-03-28T12:27:27.168Z,78.40
2019-03-28T12:29:53.248Z,76.20
2019-03-28T12:32:19.255Z,72.10
2019-03-28T15:47:43.576Z,55.90
2019-03-28T15:50:09.960Z,51.00
2019-03-28T15:52:35.998Z,46.50
2019-03-28T15:55:03.343Z,42.50
2019-03-28T15:57:29.407Z,39.40
2019-03-28T15:59:55.446Z,37.70
2019-03-28T16:02:21.464Z,36.30
2019-03-28T16:04:49.432Z,34.60
2019-03-28T16:07:15.491Z,33.90
2019-03-28T16:09:41.547Z,33.00
2019-03-28T16:12:07.588Z,32.80
2019-03-28T16:14:33.705Z,32.60
2019-03-28T16:16:59.911Z,32.80
2019-03-28T16:19:25.963Z,34.20
2019-03-28T16:21:52.003Z,34.30
2019-03-28T16:24:19.145Z,33.90
2019-03-28T16:26:45.375Z,33.10
2019-03-28T16:29:11.395Z,32.60
2019-03-28T16:31:37.465Z,33.10
2019-03-28T16:34:07.058Z,33.00
2019-03-28T16:36:31.645Z,31.80
2019-03-28T16:38:57.668Z,31.60
2019-03-28T16:41:24.109Z,31.50
2019-03-28T16:43:50.508Z,31.10
2019-03-28T16:46:16.623Z,31.30
2019-03-28T16:48:42.643Z,32.10
2019-03-28T16:51:10.580Z,33.00
2019-03-28T16:53:36.704Z,35.90
2019-03-28T16:56:02.787Z,38.70
2019-03-28T16:58:28.803Z,42.00
2019-03-28T17:00:54.848Z,44.90
2019-03-28T17:03:20.863Z,46.80
2019-03-28T17:05:47.241Z,49.70
2019-03-28T17:08:14.486Z,51.90
2019-03-28T17:10:46.064Z,53.70
2019-03-28T17:13:14.906Z,56.80
2019-03-28T17:15:40.871Z,59.80
2019-03-28T17:18:06.876Z,64.20
2019-03-28T17:20:32.908Z,67.40
2019-03-28T17:22:58.940Z,66.30
2019-03-28T17:25:24.981Z,68.20
2019-03-28T17:27:51.035Z,69.10
2019-03-28T17:30:17.074Z,73.10
2019-03-28T17:32:43.106Z,74.90
2019-03-28T17:35:12.577Z,77.90
2019-03-28T17:37:37.183Z,79.30
2019-03-28T17:40:05.311Z,80.50
2019-03-28T17:42:31.402Z,83.80
2019-03-28T17:44:57.479Z,87.10
2019-03-28T17:47:23.530Z,90.20
2019-03-28T17:49:49.639Z,91.00
2019-03-28T17:52:15.804Z,91.90
2019-03-28T17:54:43.244Z,93.70
2019-03-28T17:57:09.269Z,95.10
2019-03-28T17:59:35.315Z,95.90
2019-03-28T18:02:01.952Z,96.90
2019-03-28T18:04:27.967Z,97.50
2019-03-28T18:06:56.923Z,98.00
2019-03-28T18:09:23.190Z,98.80
2019-03-28T18:11:49.204Z,99.40
2019-03-28T18:14:15.226Z,99.70
2019-03-28T18:16:41.267Z,99.90
2019-03-28T18:19:07.289Z,99.90
2019-03-28T18:21:34.063Z,99.90
2019-03-28T18:24:00.085Z,99.90
2019-03-28T18:26:26.121Z,99.90
2019-03-28T18:28:52.216Z,99.90
2019-03-28T18:31:31.233Z,99.90
2019-03-28T18:33:58.793Z,99.90
2019-03-28T18:36:26.881Z,99.90
2019-03-28T18:38:52.992Z,99.90
2019-03-28T18:41:19.080Z,99.90
2019-03-28T18:43:47.732Z,99.90
2019-03-28T18:46:14.898Z,99.90
2019-03-28T18:48:41.125Z,99.90
2019-03-28T18:51:07.207Z,99.90
2019-03-28T18:53:33.295Z,99.90
2019-03-28T18:55:59.343Z,99.90
2019-03-28T18:58:25.420Z,99.90
2019-03-28T19:00:51.620Z,99.90
2019-03-28T19:03:17.755Z,99.90
2019-03-28T19:05:43.788Z,99.90
2019-03-28T19:08:09.852Z,99.90
2019-03-28T19:10:36.017Z,99.90
2019-03-28T19:13:04.702Z,99.90
2019-03-28T19:15:30.195Z,99.90
2019-03-28T19:17:56.370Z,99.90
2019-03-28T19:20:22.470Z,99.90
2019-03-28T19:22:50.221Z,99.90
2019-03-28T19:25:16.620Z,99.90
2019-03-28T19:27:42.908Z,99.90
2019-03-28T19:30:10.031Z,99.90
2019-03-28T19:32:36.101Z,99.90
2019-03-28T19:35:04.429Z,99.90
2019-03-28T19:37:30.648Z,99.90
2019-03-28T19:39:57.540Z,99.90
2019-03-28T19:42:23.676Z,99.90
2019-03-28T19:44:49.808Z,99.90
2019-03-28T19:47:20.410Z,99.90
2019-03-28T19:49:49.916Z,99.90
2019-03-28T19:52:18.975Z,99.90
2019-03-28T19:54:45.014Z,99.90
2019-03-28T19:57:11.048Z,99.90
2019-03-28T19:59:37.152Z,99.90
2019-03-28T20:02:06.132Z,99.90
2019-03-28T20:04:32.347Z,99.90
2019-03-28T20:06:58.428Z,99.90
2019-03-28T20:09:24.458Z,99.90
2019-03-28T20:11:50.616Z,99.90
2019-03-28T20:14:16.949Z,99.90
2019-03-28T20:16:43.216Z,99.90
2019-03-28T20:19:09.499Z,99.90
2019-03-28T20:21:35.609Z,99.90
2019-03-28T20:24:01.750Z,99.90
2019-03-28T20:26:27.782Z,99.90
2019-03-28T20:28:53.820Z,99.90
2019-03-28T20:31:19.939Z,99.90
2019-03-28T20:33:46.104Z,99.90
2019-03-28T20:36:36.205Z,99.90
2019-03-28T20:38:40.181Z,99.90
2019-03-28T20:41:06.306Z,99.90
2019-03-28T20:43:32.365Z,99.90
2019-03-28T20:45:58.387Z,99.90
2019-03-28T20:48:24.463Z,99.90
2019-03-28T20:50:50.500Z,99.90
2019-03-28T20:53:16.545Z,99.90
2019-03-28T20:55:42.685Z,99.90
2019-03-28T20:58:08.716Z,99.90
2019-03-28T21:00:39.986Z,99.90
2019-03-28T21:03:06.132Z,99.90
2019-03-28T21:05:32.259Z,99.90
2019-03-28T21:07:58.286Z,99.90
2019-03-28T21:10:24.737Z,99.90
2019-03-28T21:12:52.280Z,99.90
2019-03-28T21:15:18.317Z,99.90
2019-03-28T21:17:45.276Z,99.90
2019-03-28T21:20:11.361Z,99.90
2019-03-28T21:22:37.396Z,99.90
2019-03-28T21:25:05.333Z,99.90
2019-03-28T21:27:31.375Z,99.90
2019-03-28T21:29:57.636Z,99.90
2019-03-28T21:32:23.874Z,99.90
2019-03-28T21:34:49.904Z,99.90
2019-03-28T21:37:15.949Z,99.90
2019-03-28T21:39:41.970Z,99.90
2019-03-28T21:42:08.631Z,99.90
2019-03-28T21:44:34.792Z,99.90
2019-03-28T21:47:02.110Z,99.90
2019-03-28T21:49:28.136Z,99.90
2019-03-28T21:51:54.200Z,99.90
2019-03-28T21:54:20.211Z,99.90
2019-03-28T21:56:46.261Z,99.90
2019-03-28T21:59:12.336Z,99.90
2019-03-28T22:01:38.361Z,99.90
2019-03-28T22:04:04.511Z,99.90
2019-03-28T22:06:42.344Z,99.90
2019-03-28T22:08:58.896Z,99.90
2019-03-28T22:11:25.204Z,99.90
2019-03-28T22:13:51.362Z,99.90
2019-03-28T22:16:17.392Z,99.90
2019-03-28T22:18:43.422Z,99.90
2019-03-28T22:21:10.050Z,99.90
2019-03-28T22:23:36.212Z,99.90
2019-03-28T22:26:02.228Z,99.90
2019-03-28T22:28:28.254Z,99.90
2019-03-28T22:30:54.293Z,99.90
2019-03-28T22:33:20.351Z,99.90
2019-03-28T22:35:46.467Z,99.90
2019-03-28T22:38:12.523Z,99.90
2019-03-28T22:40:38.575Z,99.90
2019-03-28T22:43:04.692Z,99.90
2019-03-28T22:45:30.726Z,99.90
2019-03-28T22:48:09.732Z,99.90
2019-03-28T22:50:24.683Z,99.90
2019-03-28T22:52:50.722Z,99.90
2019-03-28T22:55:16.767Z,99.90
2019-03-28T22:57:42.896Z,99.90
2019-03-28T23:00:11.731Z,99.90
2019-03-28T23:02:38.063Z,99.90
2019-03-28T23:05:07.175Z,99.90
2019-03-28T23:07:33.271Z,99.90
2019-03-28T23:09:59.289Z,99.90
2019-03-28T23:12:25.319Z,99.90
2019-03-28T23:14:51.342Z,99.90
2019-03-28T23:17:17.384Z,99.90
2019-03-28T23:19:43.501Z,99.90
2019-03-28T23:22:09.508Z,99.90
2019-03-28T23:24:38.874Z,99.90
2019-03-28T23:27:03.536Z,99.90
2019-03-28T23:29:29.587Z,99.90
2019-03-28T23:31:55.616Z,99.90
2019-03-28T23:34:22.235Z,99.90
2019-03-28T23:36:48.958Z,99.90
2019-03-28T23:39:14.997Z,99.90
2019-03-28T23:41:41.018Z,99.90
2019-03-28T23:44:07.143Z,99.90
2019-03-28T23:46:33.163Z,99.90
2019-03-28T23:48:59.196Z,99.90
2019-03-28T23:51:25.219Z,99.90
2019-03-28T23:53:51.265Z,99.90
2019-03-28T23:56:17.272Z,99.90
2019-03-28T23:58:43.307Z,99.90
